Weather at John Wayne Orange County International Airport

Public forecast

Using degrees Fahrenheit for public forecast. Weather courtesy of forecast.io.

Current aviation weather report (METAR) for John Wayne Orange County International Airport

2024/07/14 16:53 (retrieved 15 minutes ago)

KSNA 141653Z 00000KT 10SM BKN015 23/17 A3006 RMK AO2 SLP178 T02280167

Aviation forecast (TAF) for John Wayne Orange County International Airport

2024/07/14 12:33 (retrieved 5 hours ago)

TAF KSNA 141131Z 1412/1512 VRB04KT P6SM OVC009 FM141600 VRB04KT P6SM BKN010 FM141800 23007KT P6SM SCT010 SCT120 FM150300 VRB04KT P6SM SCT010 FM150600 VRB04KT P6SM BKN010